sensor_id;sensor_type;location;lat;lon;timestamp;P1;durP1;ratioP1;P2;durP2;ratioP2
1128;SDS011;553;51.038;7.216;2023-08-20T00:01:36;11.30;;;9.70;;
1128;SDS011;553;51.038;7.216;2023-08-20T00:04:03;11.80;;;10.50;;
1128;SDS011;553;51.038;7.216;2023-08-20T00:06:30;13.80;;;10.30;;
1128;SDS011;553;51.038;7.216;2023-08-20T00:08:57;11.80;;;10.30;;
1128;SDS011;553;51.038;7.216;2023-08-20T00:11:24;12.80;;;11.23;;
1128;SDS011;553;51.038;7.216;2023-08-20T00:13:51;13.63;;;11.00;;
1128;SDS011;553;51.038;7.216;2023-08-20T00:16:18;12.90;;;10.27;;
1128;SDS011;553;51.038;7.216;2023-08-20T00:18:45;12.93;;;11.10;;
1128;SDS011;553;51.038;7.216;2023-08-20T00:21:13;12.50;;;11.20;;
1128;SDS011;553;51.038;7.216;2023-08-20T00:23:40;12.73;;;11.30;;
1128;SDS011;553;51.038;7.216;2023-08-20T00:26:07;14.10;;;11.47;;
1128;SDS011;553;51.038;7.216;2023-08-20T00:28:34;13.03;;;11.50;;
1128;SDS011;553;51.038;7.216;2023-08-20T00:31:03;14.47;;;12.13;;
1128;SDS011;553;51.038;7.216;2023-08-20T00:33:30;11.50;;;10.33;;
1128;SDS011;553;51.038;7.216;2023-08-20T00:35:57;12.43;;;10.70;;
1128;SDS011;553;51.038;7.216;2023-08-20T00:38:25;14.10;;;11.57;;
1128;SDS011;553;51.038;7.216;2023-08-20T00:40:53;14.60;;;12.30;;
1128;SDS011;553;51.038;7.216;2023-08-20T00:43:20;15.30;;;11.47;;
1128;SDS011;553;51.038;7.216;2023-08-20T00:45:47;12.17;;;10.87;;
1128;SDS011;553;51.038;7.216;2023-08-20T00:48:15;12.37;;;11.07;;
1128;SDS011;553;51.038;7.216;2023-08-20T00:50:42;12.87;;;11.57;;
1128;SDS011;553;51.038;7.216;2023-08-20T00:53:10;12.80;;;9.60;;
1128;SDS011;553;51.038;7.216;2023-08-20T00:55:38;13.40;;;10.67;;
1128;SDS011;553;51.038;7.216;2023-08-20T00:58:05;13.37;;;10.53;;
1128;SDS011;553;51.038;7.216;2023-08-20T01:00:32;12.67;;;11.07;;
1128;SDS011;553;51.038;7.216;2023-08-20T01:02:59;14.33;;;10.67;;
1128;SDS011;553;51.038;7.216;2023-08-20T01:05:26;14.90;;;11.97;;
1128;SDS011;553;51.038;7.216;2023-08-20T01:11:17;15.53;;;11.90;;
1128;SDS011;553;51.038;7.216;2023-08-20T01:13:51;18.07;;;12.10;;
1128;SDS011;553;51.038;7.216;2023-08-20T01:16:21;16.67;;;12.43;;
1128;SDS011;553;51.038;7.216;2023-08-20T01:18:47;12.70;;;10.80;;
1128;SDS011;553;51.038;7.216;2023-08-20T01:21:20;13.67;;;11.63;;
1128;SDS011;553;51.038;7.216;2023-08-20T01:29:44;13.70;;;11.87;;
1128;SDS011;553;51.038;7.216;2023-08-20T01:32:12;18.47;;;12.47;;
1128;SDS011;553;51.038;7.216;2023-08-20T01:34:39;12.20;;;10.90;;
1128;SDS011;553;51.038;7.216;2023-08-20T01:37:06;13.27;;;10.97;;
1128;SDS011;553;51.038;7.216;2023-08-20T01:39:34;11.07;;;9.73;;
1128;SDS011;553;51.038;7.216;2023-08-20T01:42:01;12.87;;;9.93;;
1128;SDS011;553;51.038;7.216;2023-08-20T01:44:28;19.00;;;15.40;;
1128;SDS011;553;51.038;7.216;2023-08-20T01:46:54;21.20;;;14.57;;
1128;SDS011;553;51.038;7.216;2023-08-20T01:49:21;19.30;;;14.67;;
1128;SDS011;553;51.038;7.216;2023-08-20T01:51:48;15.17;;;13.47;;
1128;SDS011;553;51.038;7.216;2023-08-20T01:54:15;15.53;;;13.10;;
1128;SDS011;553;51.038;7.216;2023-08-20T01:56:42;17.00;;;13.73;;
1128;SDS011;553;51.038;7.216;2023-08-20T01:59:09;18.40;;;14.40;;
1128;SDS011;553;51.038;7.216;2023-08-20T02:01:35;19.27;;;15.43;;
1128;SDS011;553;51.038;7.216;2023-08-20T02:04:02;20.80;;;15.90;;
1128;SDS011;553;51.038;7.216;2023-08-20T02:06:29;18.13;;;13.10;;
1128;SDS011;553;51.038;7.216;2023-08-20T02:08:56;15.50;;;13.90;;
1128;SDS011;553;51.038;7.216;2023-08-20T02:11:22;18.10;;;15.03;;
1128;SDS011;553;51.038;7.216;2023-08-20T02:13:49;19.90;;;15.50;;
1128;SDS011;553;51.038;7.216;2023-08-20T02:16:16;14.70;;;13.10;;
1128;SDS011;553;51.038;7.216;2023-08-20T02:18:43;16.57;;;13.03;;
1128;SDS011;553;51.038;7.216;2023-08-20T02:21:10;17.53;;;13.07;;
1128;SDS011;553;51.038;7.216;2023-08-20T02:23:36;14.43;;;12.00;;
1128;SDS011;553;51.038;7.216;2023-08-20T02:26:05;13.37;;;11.97;;
1128;SDS011;553;51.038;7.216;2023-08-20T02:28:33;13.83;;;12.27;;
1128;SDS011;553;51.038;7.216;2023-08-20T02:31:03;12.80;;;11.03;;
1128;SDS011;553;51.038;7.216;2023-08-20T02:33:30;14.70;;;12.17;;
1128;SDS011;553;51.038;7.216;2023-08-20T02:36:03;14.40;;;11.37;;
1128;SDS011;553;51.038;7.216;2023-08-20T02:38:31;14.17;;;12.43;;
1128;SDS011;553;51.038;7.216;2023-08-20T02:40:57;14.40;;;12.37;;
1128;SDS011;553;51.038;7.216;2023-08-20T02:43:24;16.90;;;11.80;;
1128;SDS011;553;51.038;7.216;2023-08-20T02:45:51;14.77;;;11.60;;
1128;SDS011;553;51.038;7.216;2023-08-20T02:48:18;14.00;;;11.20;;
1128;SDS011;553;51.038;7.216;2023-08-20T02:50:45;17.87;;;11.80;;
1128;SDS011;553;51.038;7.216;2023-08-20T02:53:12;13.90;;;11.33;;
1128;SDS011;553;51.038;7.216;2023-08-20T02:55:39;13.80;;;12.13;;
1128;SDS011;553;51.038;7.216;2023-08-20T02:58:06;14.73;;;12.67;;
1128;SDS011;553;51.038;7.216;2023-08-20T03:00:34;12.60;;;10.20;;
1128;SDS011;553;51.038;7.216;2023-08-20T03:03:02;15.77;;;11.60;;
1128;SDS011;553;51.038;7.216;2023-08-20T03:05:32;12.67;;;11.47;;
1128;SDS011;553;51.038;7.216;2023-08-20T03:07:58;11.50;;;10.17;;
1128;SDS011;553;51.038;7.216;2023-08-20T03:10:26;11.70;;;10.57;;
1128;SDS011;553;51.038;7.216;2023-08-20T03:12:53;16.70;;;12.57;;
1128;SDS011;553;51.038;7.216;2023-08-20T03:15:20;15.10;;;12.30;;
1128;SDS011;553;51.038;7.216;2023-08-20T03:17:47;14.77;;;11.57;;
1128;SDS011;553;51.038;7.216;2023-08-20T03:20:14;13.93;;;11.23;;
1128;SDS011;553;51.038;7.216;2023-08-20T03:22:41;14.60;;;12.23;;
1128;SDS011;553;51.038;7.216;2023-08-20T03:25:08;14.20;;;11.97;;
1128;SDS011;553;51.038;7.216;2023-08-20T03:27:35;13.40;;;11.30;;
1128;SDS011;553;51.038;7.216;2023-08-20T03:30:03;12.57;;;10.83;;
1128;SDS011;553;51.038;7.216;2023-08-20T03:32:31;15.53;;;12.37;;
1128;SDS011;553;51.038;7.216;2023-08-20T03:34:58;14.90;;;11.40;;
1128;SDS011;553;51.038;7.216;2023-08-20T03:37:25;13.57;;;11.20;;
1128;SDS011;553;51.038;7.216;2023-08-20T03:39:52;15.17;;;11.93;;
1128;SDS011;553;51.038;7.216;2023-08-20T03:42:19;16.57;;;11.67;;
1128;SDS011;553;51.038;7.216;2023-08-20T03:44:47;12.80;;;10.67;;
1128;SDS011;553;51.038;7.216;2023-08-20T03:47:15;14.20;;;11.40;;
1128;SDS011;553;51.038;7.216;2023-08-20T03:49:46;12.70;;;10.00;;
1128;SDS011;553;51.038;7.216;2023-08-20T03:52:14;15.37;;;12.70;;
1128;SDS011;553;51.038;7.216;2023-08-20T03:54:41;14.70;;;12.47;;
1128;SDS011;553;51.038;7.216;2023-08-20T03:57:08;13.50;;;12.10;;
1128;SDS011;553;51.038;7.216;2023-08-20T03:59:35;12.53;;;11.23;;
1128;SDS011;553;51.038;7.216;2023-08-20T04:02:02;15.07;;;13.57;;
1128;SDS011;553;51.038;7.216;2023-08-20T04:04:29;14.87;;;13.27;;
1128;SDS011;553;51.038;7.216;2023-08-20T04:06:57;13.43;;;12.13;;
1128;SDS011;553;51.038;7.216;2023-08-20T04:09:24;13.60;;;11.50;;
1128;SDS011;553;51.038;7.216;2023-08-20T04:11:51;13.83;;;12.33;;
1128;SDS011;553;51.038;7.216;2023-08-20T04:14:17;13.73;;;12.27;;
1128;SDS011;553;51.038;7.216;2023-08-20T04:16:44;14.33;;;12.83;;
1128;SDS011;553;51.038;7.216;2023-08-20T04:19:12;14.97;;;12.70;;
1128;SDS011;553;51.038;7.216;2023-08-20T04:21:40;13.00;;;11.43;;
1128;SDS011;553;51.038;7.216;2023-08-20T04:24:07;13.97;;;11.90;;
1128;SDS011;553;51.038;7.216;2023-08-20T04:26:34;12.40;;;11.10;;
1128;SDS011;553;51.038;7.216;2023-08-20T04:29:01;14.50;;;11.77;;
1128;SDS011;553;51.038;7.216;2023-08-20T04:31:29;12.50;;;11.20;;
1128;SDS011;553;51.038;7.216;2023-08-20T04:34:01;13.03;;;11.53;;
1128;SDS011;553;51.038;7.216;2023-08-20T04:36:37;12.43;;;11.00;;
1128;SDS011;553;51.038;7.216;2023-08-20T04:39:04;13.50;;;11.57;;
1128;SDS011;553;51.038;7.216;2023-08-20T04:41:34;13.23;;;10.77;;
1128;SDS011;553;51.038;7.216;2023-08-20T04:44:01;12.70;;;11.10;;
1128;SDS011;553;51.038;7.216;2023-08-20T04:46:28;15.17;;;11.87;;
1128;SDS011;553;51.038;7.216;2023-08-20T04:48:55;13.73;;;10.90;;
1128;SDS011;553;51.038;7.216;2023-08-20T04:51:22;13.30;;;11.90;;
1128;SDS011;553;51.038;7.216;2023-08-20T04:53:49;12.20;;;10.97;;
1128;SDS011;553;51.038;7.216;2023-08-20T04:56:16;15.40;;;12.93;;
1128;SDS011;553;51.038;7.216;2023-08-20T04:58:43;16.77;;;13.37;;
1128;SDS011;553;51.038;7.216;2023-08-20T05:01:10;14.90;;;12.07;;
1128;SDS011;553;51.038;7.216;2023-08-20T05:03:37;15.27;;;13.47;;
1128;SDS011;553;51.038;7.216;2023-08-20T05:06:04;14.63;;;12.80;;
1128;SDS011;553;51.038;7.216;2023-08-20T05:08:31;13.17;;;11.77;;
1128;SDS011;553;51.038;7.216;2023-08-20T05:10:57;15.37;;;10.90;;
1128;SDS011;553;51.038;7.216;2023-08-20T05:13:24;13.40;;;11.80;;
1128;SDS011;553;51.038;7.216;2023-08-20T05:15:51;16.40;;;14.27;;
1128;SDS011;553;51.038;7.216;2023-08-20T05:18:18;14.30;;;13.00;;
1128;SDS011;553;51.038;7.216;2023-08-20T05:20:46;13.77;;;12.30;;
1128;SDS011;553;51.038;7.216;2023-08-20T05:23:12;16.60;;;14.80;;
1128;SDS011;553;51.038;7.216;2023-08-20T05:25:40;21.63;;;15.90;;
1128;SDS011;553;51.038;7.216;2023-08-20T05:28:07;20.70;;;13.47;;
1128;SDS011;553;51.038;7.216;2023-08-20T05:30:34;18.20;;;13.53;;
1128;SDS011;553;51.038;7.216;2023-08-20T05:33:02;17.63;;;14.50;;
1128;SDS011;553;51.038;7.216;2023-08-20T05:35:34;19.50;;;13.90;;
1128;SDS011;553;51.038;7.216;2023-08-20T05:38:02;18.00;;;14.70;;
1128;SDS011;553;51.038;7.216;2023-08-20T05:40:29;14.10;;;12.60;;
1128;SDS011;553;51.038;7.216;2023-08-20T05:42:56;15.30;;;12.10;;
1128;SDS011;553;51.038;7.216;2023-08-20T05:45:23;12.70;;;11.33;;
1128;SDS011;553;51.038;7.216;2023-08-20T05:47:51;15.43;;;12.33;;
1128;SDS011;553;51.038;7.216;2023-08-20T05:50:18;15.40;;;12.20;;
1128;SDS011;553;51.038;7.216;2023-08-20T05:52:44;18.93;;;14.40;;
1128;SDS011;553;51.038;7.216;2023-08-20T05:55:11;17.90;;;13.00;;
1128;SDS011;553;51.038;7.216;2023-08-20T05:57:38;15.33;;;12.80;;
1128;SDS011;553;51.038;7.216;2023-08-20T06:00:05;15.27;;;13.70;;
1128;SDS011;553;51.038;7.216;2023-08-20T06:02:38;15.10;;;11.80;;
1128;SDS011;553;51.038;7.216;2023-08-20T06:05:06;13.27;;;11.87;;
1128;SDS011;553;51.038;7.216;2023-08-20T06:07:34;13.33;;;11.73;;
1128;SDS011;553;51.038;7.216;2023-08-20T06:10:01;16.13;;;12.00;;
1128;SDS011;553;51.038;7.216;2023-08-20T06:12:27;12.90;;;11.17;;
1128;SDS011;553;51.038;7.216;2023-08-20T06:14:54;16.20;;;11.97;;
1128;SDS011;553;51.038;7.216;2023-08-20T06:17:21;11.67;;;10.47;;
1128;SDS011;553;51.038;7.216;2023-08-20T06:19:48;11.27;;;10.13;;
1128;SDS011;553;51.038;7.216;2023-08-20T06:22:15;11.37;;;10.27;;
1128;SDS011;553;51.038;7.216;2023-08-20T06:24:41;11.57;;;8.93;;
1128;SDS011;553;51.038;7.216;2023-08-20T06:27:08;9.03;;;8.10;;
1128;SDS011;553;51.038;7.216;2023-08-20T06:29:36;10.53;;;8.17;;
1128;SDS011;553;51.038;7.216;2023-08-20T06:32:03;9.83;;;8.10;;
1128;SDS011;553;51.038;7.216;2023-08-20T06:34:30;8.63;;;7.70;;
1128;SDS011;553;51.038;7.216;2023-08-20T06:36:57;10.23;;;8.37;;
1128;SDS011;553;51.038;7.216;2023-08-20T06:39:24;10.30;;;7.90;;
1128;SDS011;553;51.038;7.216;2023-08-20T06:41:51;10.17;;;7.90;;
1128;SDS011;553;51.038;7.216;2023-08-20T06:44:19;8.40;;;6.87;;
1128;SDS011;553;51.038;7.216;2023-08-20T06:46:46;8.17;;;7.47;;
1128;SDS011;553;51.038;7.216;2023-08-20T06:49:13;8.03;;;7.23;;
1128;SDS011;553;51.038;7.216;2023-08-20T06:51:39;9.80;;;8.60;;
1128;SDS011;553;51.038;7.216;2023-08-20T06:54:06;9.50;;;8.60;;
1128;SDS011;553;51.038;7.216;2023-08-20T06:56:33;10.57;;;8.20;;
1128;SDS011;553;51.038;7.216;2023-08-20T06:59:00;11.97;;;10.73;;
1128;SDS011;553;51.038;7.216;2023-08-20T07:01:29;11.20;;;10.00;;
1128;SDS011;553;51.038;7.216;2023-08-20T07:03:56;11.50;;;9.47;;
1128;SDS011;553;51.038;7.216;2023-08-20T07:06:23;12.07;;;8.47;;
1128;SDS011;553;51.038;7.216;2023-08-20T07:08:50;9.17;;;7.30;;
1128;SDS011;553;51.038;7.216;2023-08-20T07:11:16;8.60;;;7.80;;
1128;SDS011;553;51.038;7.216;2023-08-20T07:13:43;9.53;;;7.17;;
1128;SDS011;553;51.038;7.216;2023-08-20T07:16:10;9.90;;;7.90;;
1128;SDS011;553;51.038;7.216;2023-08-20T07:18:37;6.90;;;6.30;;
1128;SDS011;553;51.038;7.216;2023-08-20T07:21:04;7.60;;;6.80;;
1128;SDS011;553;51.038;7.216;2023-08-20T07:23:31;6.70;;;6.20;;
1128;SDS011;553;51.038;7.216;2023-08-20T07:26:07;8.63;;;6.83;;
1128;SDS011;553;51.038;7.216;2023-08-20T07:28:36;6.90;;;6.20;;
1128;SDS011;553;51.038;7.216;2023-08-20T07:31:22;6.70;;;6.10;;
1128;SDS011;553;51.038;7.216;2023-08-20T07:33:50;6.63;;;5.40;;
1128;SDS011;553;51.038;7.216;2023-08-20T07:36:17;6.30;;;4.50;;
1128;SDS011;553;51.038;7.216;2023-08-20T07:38:45;5.87;;;5.07;;
1128;SDS011;553;51.038;7.216;2023-08-20T07:41:12;4.47;;;4.07;;
1128;SDS011;553;51.038;7.216;2023-08-20T07:43:39;5.57;;;5.00;;
1128;SDS011;553;51.038;7.216;2023-08-20T07:46:07;6.33;;;4.20;;
1128;SDS011;553;51.038;7.216;2023-08-20T07:48:35;6.50;;;3.63;;
1128;SDS011;553;51.038;7.216;2023-08-20T07:51:02;5.90;;;4.27;;
1128;SDS011;553;51.038;7.216;2023-08-20T07:53:29;3.60;;;3.30;;
1128;SDS011;553;51.038;7.216;2023-08-20T07:55:57;6.20;;;4.30;;
1128;SDS011;553;51.038;7.216;2023-08-20T07:58:23;4.53;;;3.53;;
1128;SDS011;553;51.038;7.216;2023-08-20T08:00:50;3.83;;;3.53;;
1128;SDS011;553;51.038;7.216;2023-08-20T08:03:17;5.27;;;4.17;;
1128;SDS011;553;51.038;7.216;2023-08-20T08:05:47;4.07;;;3.60;;
1128;SDS011;553;51.038;7.216;2023-08-20T08:08:15;4.90;;;3.70;;
1128;SDS011;553;51.038;7.216;2023-08-20T08:10:43;4.00;;;3.57;;
1128;SDS011;553;51.038;7.216;2023-08-20T08:13:11;4.27;;;3.30;;
1128;SDS011;553;51.038;7.216;2023-08-20T08:15:39;4.90;;;3.43;;
1128;SDS011;553;51.038;7.216;2023-08-20T08:18:06;4.07;;;3.20;;
1128;SDS011;553;51.038;7.216;2023-08-20T08:20:33;3.70;;;2.90;;
1128;SDS011;553;51.038;7.216;2023-08-20T08:23:00;3.53;;;3.10;;
1128;SDS011;553;51.038;7.216;2023-08-20T08:25:28;7.20;;;4.23;;
1128;SDS011;553;51.038;7.216;2023-08-20T08:27:55;5.40;;;3.90;;
1128;SDS011;553;51.038;7.216;2023-08-20T08:30:26;4.30;;;3.90;;
1128;SDS011;553;51.038;7.216;2023-08-20T08:32:53;5.60;;;4.30;;
1128;SDS011;553;51.038;7.216;2023-08-20T08:35:20;6.30;;;4.03;;
1128;SDS011;553;51.038;7.216;2023-08-20T08:37:47;6.83;;;4.87;;
1128;SDS011;553;51.038;7.216;2023-08-20T08:40:14;5.10;;;4.23;;
1128;SDS011;553;51.038;7.216;2023-08-20T08:42:41;4.73;;;4.00;;
1128;SDS011;553;51.038;7.216;2023-08-20T08:45:10;10.80;;;5.10;;
1128;SDS011;553;51.038;7.216;2023-08-20T08:47:39;4.10;;;3.70;;
1128;SDS011;553;51.038;7.216;2023-08-20T08:50:06;4.90;;;4.23;;
1128;SDS011;553;51.038;7.216;2023-08-20T08:52:33;4.50;;;4.10;;
1128;SDS011;553;51.038;7.216;2023-08-20T08:55:03;4.80;;;4.30;;
1128;SDS011;553;51.038;7.216;2023-08-20T08:57:31;5.10;;;3.60;;
1128;SDS011;553;51.038;7.216;2023-08-20T08:59:58;5.77;;;3.87;;
1128;SDS011;553;51.038;7.216;2023-08-20T09:02:25;7.23;;;4.90;;
1128;SDS011;553;51.038;7.216;2023-08-20T09:04:52;5.80;;;5.20;;
1128;SDS011;553;51.038;7.216;2023-08-20T09:07:19;7.50;;;6.07;;
1128;SDS011;553;51.038;7.216;2023-08-20T09:09:46;7.10;;;6.50;;
1128;SDS011;553;51.038;7.216;2023-08-20T09:12:16;5.97;;;5.37;;
1128;SDS011;553;51.038;7.216;2023-08-20T09:14:48;7.30;;;6.10;;
1128;SDS011;553;51.038;7.216;2023-08-20T09:17:16;7.03;;;5.80;;
1128;SDS011;553;51.038;7.216;2023-08-20T09:19:44;9.03;;;6.53;;
1128;SDS011;553;51.038;7.216;2023-08-20T09:22:12;6.07;;;5.50;;
1128;SDS011;553;51.038;7.216;2023-08-20T09:24:44;6.87;;;6.20;;
1128;SDS011;553;51.038;7.216;2023-08-20T09:27:12;6.50;;;5.90;;
1128;SDS011;553;51.038;7.216;2023-08-20T09:29:46;8.73;;;6.33;;
1128;SDS011;553;51.038;7.216;2023-08-20T09:32:15;6.20;;;5.60;;
1128;SDS011;553;51.038;7.216;2023-08-20T09:34:47;7.20;;;6.50;;
1128;SDS011;553;51.038;7.216;2023-08-20T09:37:15;8.03;;;7.23;;
1128;SDS011;553;51.038;7.216;2023-08-20T09:39:43;6.43;;;5.73;;
1128;SDS011;553;51.038;7.216;2023-08-20T09:42:11;6.93;;;5.60;;
1128;SDS011;553;51.038;7.216;2023-08-20T09:44:39;7.50;;;6.20;;
1128;SDS011;553;51.038;7.216;2023-08-20T09:47:11;7.90;;;6.53;;
1128;SDS011;553;51.038;7.216;2023-08-20T09:49:39;8.40;;;7.60;;
1128;SDS011;553;51.038;7.216;2023-08-20T09:52:12;9.27;;;8.30;;
1128;SDS011;553;51.038;7.216;2023-08-20T09:57:38;8.40;;;7.50;;
1128;SDS011;553;51.038;7.216;2023-08-20T10:00:11;8.23;;;7.43;;
1128;SDS011;553;51.038;7.216;2023-08-20T10:02:39;9.10;;;6.40;;
1128;SDS011;553;51.038;7.216;2023-08-20T10:05:07;9.17;;;6.80;;
1128;SDS011;553;51.038;7.216;2023-08-20T10:07:35;9.40;;;7.30;;
1128;SDS011;553;51.038;7.216;2023-08-20T10:10:07;8.83;;;7.93;;
1128;SDS011;553;51.038;7.216;2023-08-20T10:12:34;7.70;;;7.00;;
1128;SDS011;553;51.038;7.216;2023-08-20T10:15:03;7.53;;;6.70;;
1128;SDS011;553;51.038;7.216;2023-08-20T10:17:30;7.03;;;6.20;;
1128;SDS011;553;51.038;7.216;2023-08-20T10:20:03;7.80;;;7.10;;
1128;SDS011;553;51.038;7.216;2023-08-20T10:22:37;7.73;;;7.03;;
1128;SDS011;553;51.038;7.216;2023-08-20T10:25:06;7.73;;;7.13;;
1128;SDS011;553;51.038;7.216;2023-08-20T10:27:35;8.23;;;7.00;;
1128;SDS011;553;51.038;7.216;2023-08-20T10:30:07;9.13;;;7.33;;
1128;SDS011;553;51.038;7.216;2023-08-20T10:35:16;7.73;;;7.03;;
1128;SDS011;553;51.038;7.216;2023-08-20T10:38:01;8.10;;;7.40;;
1128;SDS011;553;51.038;7.216;2023-08-20T10:40:51;8.17;;;7.27;;
1128;SDS011;553;51.038;7.216;2023-08-20T10:43:31;6.73;;;6.13;;
1128;SDS011;553;51.038;7.216;2023-08-20T10:46:13;7.00;;;6.37;;
1128;SDS011;553;51.038;7.216;2023-08-20T11:01:50;6.90;;;6.30;;
1128;SDS011;553;51.038;7.216;2023-08-20T11:04:18;6.90;;;6.30;;
1128;SDS011;553;51.038;7.216;2023-08-20T11:06:47;8.13;;;7.30;;
1128;SDS011;553;51.038;7.216;2023-08-20T11:09:16;7.77;;;6.40;;
1128;SDS011;553;51.038;7.216;2023-08-20T11:11:43;8.27;;;7.47;;
1128;SDS011;553;51.038;7.216;2023-08-20T11:14:13;8.30;;;7.37;;
1128;SDS011;553;51.038;7.216;2023-08-20T11:16:42;7.87;;;7.17;;
1128;SDS011;553;51.038;7.216;2023-08-20T11:19:10;10.77;;;9.80;;
1128;SDS011;553;51.038;7.216;2023-08-20T11:21:37;9.90;;;8.90;;
1128;SDS011;553;51.038;7.216;2023-08-20T11:24:05;11.33;;;10.10;;
1128;SDS011;553;51.038;7.216;2023-08-20T11:26:33;11.30;;;9.73;;
1128;SDS011;553;51.038;7.216;2023-08-20T11:29:05;10.53;;;9.50;;
1128;SDS011;553;51.038;7.216;2023-08-20T11:31:33;10.13;;;9.23;;
1128;SDS011;553;51.038;7.216;2023-08-20T11:34:01;10.40;;;9.23;;
1128;SDS011;553;51.038;7.216;2023-08-20T11:36:29;9.90;;;9.10;;
1128;SDS011;553;51.038;7.216;2023-08-20T11:38:56;10.87;;;9.70;;
1128;SDS011;553;51.038;7.216;2023-08-20T11:41:23;9.80;;;8.90;;
1128;SDS011;553;51.038;7.216;2023-08-20T11:43:51;11.13;;;10.10;;
1128;SDS011;553;51.038;7.216;2023-08-20T11:46:20;10.27;;;9.27;;
1128;SDS011;553;51.038;7.216;2023-08-20T11:51:44;9.80;;;9.00;;
1128;SDS011;553;51.038;7.216;2023-08-20T11:54:18;10.87;;;8.57;;
1128;SDS011;553;51.038;7.216;2023-08-20T11:56:46;9.40;;;8.50;;
1128;SDS011;553;51.038;7.216;2023-08-20T11:59:14;9.87;;;9.00;;
1128;SDS011;553;51.038;7.216;2023-08-20T12:01:42;8.30;;;7.50;;
1128;SDS011;553;51.038;7.216;2023-08-20T12:04:10;9.50;;;8.60;;
1128;SDS011;553;51.038;7.216;2023-08-20T12:06:37;9.17;;;8.33;;
1128;SDS011;553;51.038;7.216;2023-08-20T12:09:20;13.13;;;7.50;;
1128;SDS011;553;51.038;7.216;2023-08-20T12:11:51;9.53;;;8.73;;
1128;SDS011;553;51.038;7.216;2023-08-20T12:14:18;10.53;;;8.40;;
1128;SDS011;553;51.038;7.216;2023-08-20T12:16:46;9.90;;;8.90;;
1128;SDS011;553;51.038;7.216;2023-08-20T12:19:13;8.73;;;7.93;;
1128;SDS011;553;51.038;7.216;2023-08-20T12:21:40;9.13;;;8.23;;
1128;SDS011;553;51.038;7.216;2023-08-20T12:24:09;8.60;;;7.80;;
1128;SDS011;553;51.038;7.216;2023-08-20T12:26:36;8.50;;;7.70;;
1128;SDS011;553;51.038;7.216;2023-08-20T12:29:04;8.53;;;7.60;;
1128;SDS011;553;51.038;7.216;2023-08-20T12:31:32;7.60;;;6.90;;
1128;SDS011;553;51.038;7.216;2023-08-20T12:33:59;8.30;;;7.60;;
1128;SDS011;553;51.038;7.216;2023-08-20T12:36:27;8.03;;;7.13;;
1128;SDS011;553;51.038;7.216;2023-08-20T12:38:54;8.50;;;7.53;;
1128;SDS011;553;51.038;7.216;2023-08-20T12:41:21;8.07;;;7.30;;
1128;SDS011;553;51.038;7.216;2023-08-20T12:43:48;8.00;;;7.20;;
1128;SDS011;553;51.038;7.216;2023-08-20T12:46:16;7.80;;;7.03;;
1128;SDS011;553;51.038;7.216;2023-08-20T12:48:43;7.57;;;6.90;;
1128;SDS011;553;51.038;7.216;2023-08-20T12:51:10;7.40;;;6.70;;
1128;SDS011;553;51.038;7.216;2023-08-20T12:53:40;8.60;;;7.77;;
1128;SDS011;553;51.038;7.216;2023-08-20T12:56:06;7.20;;;6.60;;
1128;SDS011;553;51.038;7.216;2023-08-20T12:58:33;6.80;;;6.20;;
1128;SDS011;553;51.038;7.216;2023-08-20T13:01:00;9.83;;;7.70;;
1128;SDS011;553;51.038;7.216;2023-08-20T13:03:27;8.50;;;7.63;;
1128;SDS011;553;51.038;7.216;2023-08-20T13:05:55;7.40;;;6.70;;
1128;SDS011;553;51.038;7.216;2023-08-20T13:08:25;7.90;;;7.20;;
1128;SDS011;553;51.038;7.216;2023-08-20T13:10:53;7.70;;;6.97;;
1128;SDS011;553;51.038;7.216;2023-08-20T13:13:22;6.93;;;6.23;;
1128;SDS011;553;51.038;7.216;2023-08-20T13:15:50;7.13;;;6.53;;
1128;SDS011;553;51.038;7.216;2023-08-20T13:18:18;6.53;;;5.93;;
1128;SDS011;553;51.038;7.216;2023-08-20T13:20:45;7.47;;;6.77;;
1128;SDS011;553;51.038;7.216;2023-08-20T13:23:12;7.43;;;6.70;;
1128;SDS011;553;51.038;7.216;2023-08-20T13:25:39;7.20;;;6.60;;
1128;SDS011;553;51.038;7.216;2023-08-20T13:28:06;7.03;;;6.40;;
1128;SDS011;553;51.038;7.216;2023-08-20T13:30:33;7.27;;;6.57;;
1128;SDS011;553;51.038;7.216;2023-08-20T13:33:00;7.23;;;6.53;;
1128;SDS011;553;51.038;7.216;2023-08-20T13:35:27;7.20;;;6.50;;
1128;SDS011;553;51.038;7.216;2023-08-20T13:37:54;9.23;;;6.63;;
1128;SDS011;553;51.038;7.216;2023-08-20T13:40:21;7.90;;;7.17;;
1128;SDS011;553;51.038;7.216;2023-08-20T13:42:48;7.23;;;6.63;;
1128;SDS011;553;51.038;7.216;2023-08-20T13:45:14;7.10;;;6.50;;
1128;SDS011;553;51.038;7.216;2023-08-20T13:47:42;8.00;;;6.50;;
1128;SDS011;553;51.038;7.216;2023-08-20T13:50:13;7.20;;;6.57;;
1128;SDS011;553;51.038;7.216;2023-08-20T13:52:40;6.87;;;6.27;;
1128;SDS011;553;51.038;7.216;2023-08-20T13:55:07;6.50;;;5.90;;
1128;SDS011;553;51.038;7.216;2023-08-20T13:57:34;7.07;;;6.47;;
1128;SDS011;553;51.038;7.216;2023-08-20T14:00:01;7.57;;;6.87;;
1128;SDS011;553;51.038;7.216;2023-08-20T14:02:34;7.10;;;6.50;;
1128;SDS011;553;51.038;7.216;2023-08-20T14:05:01;6.90;;;6.30;;
1128;SDS011;553;51.038;7.216;2023-08-20T14:07:30;8.40;;;6.30;;
1128;SDS011;553;51.038;7.216;2023-08-20T14:09:59;7.70;;;7.10;;
1128;SDS011;553;51.038;7.216;2023-08-20T14:12:26;9.30;;;7.10;;
1128;SDS011;553;51.038;7.216;2023-08-20T14:14:53;7.20;;;6.60;;
1128;SDS011;553;51.038;7.216;2023-08-20T14:17:20;9.47;;;7.23;;
1128;SDS011;553;51.038;7.216;2023-08-20T14:19:47;7.27;;;6.67;;
1128;SDS011;553;51.038;7.216;2023-08-20T14:22:14;6.90;;;6.30;;
1128;SDS011;553;51.038;7.216;2023-08-20T14:24:40;7.00;;;6.40;;
1128;SDS011;553;51.038;7.216;2023-08-20T14:27:07;7.97;;;7.23;;
1128;SDS011;553;51.038;7.216;2023-08-20T14:29:34;7.37;;;6.67;;
1128;SDS011;553;51.038;7.216;2023-08-20T14:32:01;7.07;;;6.43;;
1128;SDS011;553;51.038;7.216;2023-08-20T14:34:29;7.37;;;6.77;;
1128;SDS011;553;51.038;7.216;2023-08-20T14:36:56;7.67;;;7.00;;
1128;SDS011;553;51.038;7.216;2023-08-20T14:39:22;8.30;;;7.10;;
1128;SDS011;553;51.038;7.216;2023-08-20T14:41:50;8.43;;;6.70;;
1128;SDS011;553;51.038;7.216;2023-08-20T14:44:16;7.10;;;6.50;;
1128;SDS011;553;51.038;7.216;2023-08-20T14:46:43;6.90;;;6.37;;
1128;SDS011;553;51.038;7.216;2023-08-20T14:49:10;7.57;;;6.97;;
1128;SDS011;553;51.038;7.216;2023-08-20T14:51:37;7.20;;;6.60;;
1128;SDS011;553;51.038;7.216;2023-08-20T14:54:03;6.97;;;6.37;;
1128;SDS011;553;51.038;7.216;2023-08-20T14:56:30;7.47;;;6.33;;
1128;SDS011;553;51.038;7.216;2023-08-20T14:58:57;6.87;;;6.30;;
1128;SDS011;553;51.038;7.216;2023-08-20T15:01:24;7.40;;;6.37;;
1128;SDS011;553;51.038;7.216;2023-08-20T15:03:51;7.97;;;7.03;;
1128;SDS011;553;51.038;7.216;2023-08-20T15:06:18;6.93;;;6.33;;
1128;SDS011;553;51.038;7.216;2023-08-20T15:08:47;6.60;;;6.10;;
1128;SDS011;553;51.038;7.216;2023-08-20T15:11:14;6.47;;;5.93;;
1128;SDS011;553;51.038;7.216;2023-08-20T15:13:41;6.50;;;5.87;;
1128;SDS011;553;51.038;7.216;2023-08-20T15:16:08;7.07;;;6.47;;
1128;SDS011;553;51.038;7.216;2023-08-20T15:18:35;7.73;;;7.10;;
1128;SDS011;553;51.038;7.216;2023-08-20T15:21:02;7.77;;;6.97;;
1128;SDS011;553;51.038;7.216;2023-08-20T15:23:29;7.43;;;6.83;;
1128;SDS011;553;51.038;7.216;2023-08-20T15:25:56;6.90;;;6.30;;
1128;SDS011;553;51.038;7.216;2023-08-20T15:28:23;7.60;;;6.37;;
1128;SDS011;553;51.038;7.216;2023-08-20T15:30:52;7.70;;;7.10;;
1128;SDS011;553;51.038;7.216;2023-08-20T15:33:20;7.90;;;7.10;;
1128;SDS011;553;51.038;7.216;2023-08-20T15:35:47;8.20;;;6.50;;
1128;SDS011;553;51.038;7.216;2023-08-20T15:38:14;7.53;;;6.97;;
1128;SDS011;553;51.038;7.216;2023-08-20T15:40:41;7.80;;;7.20;;
1128;SDS011;553;51.038;7.216;2023-08-20T15:43:08;7.60;;;7.00;;
1128;SDS011;553;51.038;7.216;2023-08-20T15:45:35;8.40;;;7.17;;
1128;SDS011;553;51.038;7.216;2023-08-20T15:48:02;6.50;;;6.00;;
1128;SDS011;553;51.038;7.216;2023-08-20T15:50:29;7.50;;;6.57;;
1128;SDS011;553;51.038;7.216;2023-08-20T15:52:55;6.83;;;6.17;;